createdAt,value
2019-02-09T00:00:49.072Z,0.55
2019-02-09T00:01:57.120Z,0.47
2019-02-09T00:03:05.206Z,0.49
2019-02-09T00:04:13.236Z,0.47
2019-02-09T00:05:21.267Z,0.44
2019-02-09T00:06:29.377Z,0.35
2019-02-09T00:07:37.401Z,0.42
2019-02-09T00:08:45.466Z,0.38
2019-02-09T00:09:53.627Z,0.33
2019-02-09T00:11:01.598Z,0.26
2019-02-09T00:12:09.617Z,0.26
2019-02-09T00:13:17.675Z,0.21
2019-02-09T00:14:25.738Z,0.14
2019-02-09T00:15:33.781Z,0.10
2019-02-09T00:16:41.880Z,0.08
2019-02-09T00:17:49.900Z,0.00
2019-02-09T00:18:57.963Z,0.13
2019-02-09T00:20:05.992Z,0.02
2019-02-09T00:21:14.079Z,-0.01
2019-02-09T00:22:22.088Z,0.03
2019-02-09T00:23:30.183Z,-0.08
2019-02-09T00:24:38.213Z,0.02
2019-02-09T00:25:46.282Z,-0.14
2019-02-09T00:26:54.341Z,-0.10
2019-02-09T00:28:02.381Z,0.03
2019-02-09T00:29:10.450Z,-0.07
2019-02-09T00:30:18.518Z,-0.05
2019-02-09T00:31:26.553Z,-0.01
2019-02-09T00:32:34.617Z,0.03
2019-02-09T00:33:42.661Z,0.02
2019-02-09T00:34:50.715Z,-0.10
2019-02-09T00:35:58.757Z,-0.14
2019-02-09T00:37:06.858Z,-0.16
2019-02-09T00:38:14.868Z,-0.16
2019-02-09T00:39:22.927Z,-0.16
2019-02-09T00:40:31.008Z,-0.14
2019-02-09T00:41:39.060Z,-0.16
2019-02-09T00:42:47.099Z,-0.15
2019-02-09T00:43:55.183Z,-0.18
2019-02-09T00:45:03.210Z,-0.14
2019-02-09T00:46:11.272Z,-0.10
2019-02-09T00:47:19.299Z,-0.14
2019-02-09T00:48:27.349Z,-0.11
2019-02-09T00:49:35.432Z,-0.16
2019-02-09T00:50:43.497Z,-0.23
2019-02-09T00:51:51.538Z,-0.23
2019-02-09T00:52:59.597Z,-0.19
2019-02-09T00:54:07.686Z,-0.16
2019-02-09T00:55:15.703Z,-0.07
2019-02-09T00:56:23.743Z,-0.10
2019-02-09T00:57:31.834Z,0.00
2019-02-09T00:58:39.893Z,0.11
2019-02-09T00:59:53.940Z,0.10
2019-02-09T01:00:55.973Z,0.02
2019-02-09T01:02:04.057Z,0.08
2019-02-09T01:03:12.064Z,0.13
2019-02-09T01:04:20.181Z,0.11
2019-02-09T01:05:28.202Z,0.08
2019-02-09T01:06:36.283Z,0.00
2019-02-09T01:07:44.381Z,0.04
2019-02-09T01:08:52.372Z,0.18
2019-02-09T01:10:00.419Z,0.23
2019-02-09T01:11:08.466Z,0.18
2019-02-09T01:12:16.526Z,0.18
2019-02-09T01:13:24.608Z,0.21
2019-02-09T01:14:32.650Z,0.15
2019-02-09T01:15:40.700Z,0.17
2019-02-09T01:16:48.768Z,0.20
2019-02-09T01:17:56.808Z,0.15
2019-02-09T01:19:04.861Z,0.20
2019-02-09T01:20:12.912Z,0.23
2019-02-09T01:21:20.973Z,0.15
2019-02-09T01:22:29.010Z,0.21
2019-02-09T01:23:37.089Z,0.23
2019-02-09T01:24:45.161Z,0.20
2019-02-09T01:25:53.189Z,0.26
2019-02-09T01:27:01.222Z,0.21
2019-02-09T01:28:09.286Z,0.21
2019-02-09T01:29:17.350Z,0.23
2019-02-09T01:30:25.419Z,0.17
2019-02-09T01:31:33.470Z,0.08
2019-02-09T01:32:41.508Z,0.24
2019-02-09T01:33:49.571Z,0.24
2019-02-09T01:34:57.639Z,0.18
2019-02-09T01:36:05.682Z,0.14
2019-02-09T01:37:13.750Z,0.18
2019-02-09T01:38:21.794Z,0.14
2019-02-09T01:39:29.856Z,0.11
2019-02-09T01:40:37.883Z,0.08
2019-02-09T01:41:45.959Z,0.13
2019-02-09T01:42:54.018Z,0.13
2019-02-09T01:44:02.064Z,0.07
2019-02-09T01:45:10.121Z,0.15
2019-02-09T01:46:18.178Z,0.10
2019-02-09T01:47:26.235Z,0.14
2019-02-09T01:48:34.279Z,0.14
2019-02-09T01:49:42.342Z,0.13
2019-02-09T01:50:50.383Z,0.15
2019-02-09T01:51:58.476Z,0.10
2019-02-09T01:53:06.492Z,0.17
2019-02-09T01:54:14.577Z,0.14
2019-02-09T01:55:22.619Z,0.04
2019-02-09T01:56:30.708Z,0.14
2019-02-09T01:57:38.722Z,0.03
2019-02-09T01:58:47.360Z,0.17
2019-02-09T01:59:55.043Z,0.11
2019-02-09T02:01:02.908Z,0.23
2019-02-09T02:02:10.953Z,0.17
2019-02-09T02:03:19.005Z,0.20
2019-02-09T02:04:27.060Z,0.23
2019-02-09T02:05:35.120Z,0.20
2019-02-09T02:06:43.164Z,0.17
2019-02-09T02:07:51.247Z,0.20
2019-02-09T02:08:59.268Z,0.20
2019-02-09T02:10:07.328Z,0.13
2019-02-09T02:11:15.390Z,0.13
2019-02-09T02:12:23.451Z,0.20
2019-02-09T02:13:31.489Z,0.26
2019-02-09T02:14:39.582Z,0.28
2019-02-09T02:15:47.612Z,0.31
2019-02-09T02:16:55.673Z,0.28
2019-02-09T02:18:03.720Z,0.26
2019-02-09T02:19:11.773Z,0.38
2019-02-09T02:20:19.838Z,0.39
2019-02-09T02:21:27.877Z,0.36
2019-02-09T02:22:35.963Z,0.46
2019-02-09T02:23:43.981Z,0.47
2019-02-09T02:24:52.050Z,0.58
2019-02-09T02:26:00.099Z,0.65
2019-02-09T02:27:08.163Z,0.68
2019-02-09T02:28:16.220Z,0.72
2019-02-09T02:29:24.596Z,0.79
2019-02-09T02:30:33.356Z,0.93
2019-02-09T02:31:40.669Z,0.91
2019-02-09T02:32:48.440Z,1.04
2019-02-09T02:33:56.758Z,1.11
2019-02-09T02:35:04.555Z,1.18
2019-02-09T02:36:12.629Z,1.22
2019-02-09T02:37:20.655Z,1.26
2019-02-09T02:38:28.703Z,1.20
2019-02-09T02:39:36.777Z,1.23
2019-02-09T02:40:44.819Z,1.37
2019-02-09T02:41:52.881Z,1.37
2019-02-09T02:43:00.931Z,1.37
2019-02-09T02:44:08.989Z,1.42
2019-02-09T02:45:17.054Z,1.45
2019-02-09T02:46:25.113Z,1.45
2019-02-09T02:47:33.169Z,1.52
2019-02-09T02:48:41.196Z,1.54
2019-02-09T02:49:49.322Z,1.62
2019-02-09T02:50:57.337Z,1.70
2019-02-09T02:52:05.366Z,1.68
2019-02-09T02:53:13.424Z,1.81
2019-02-09T02:54:21.482Z,1.83
2019-02-09T02:55:29.547Z,1.84
2019-02-09T02:56:37.597Z,1.83
2019-02-09T02:57:45.672Z,1.86
2019-02-09T02:58:53.713Z,1.81
2019-02-09T03:00:01.768Z,1.86
2019-02-09T03:01:09.828Z,1.91
2019-02-09T03:02:17.897Z,1.88
2019-02-09T03:03:25.936Z,1.87
2019-02-09T03:04:34.026Z,1.87
2019-02-09T03:05:42.065Z,1.88
2019-02-09T03:06:50.154Z,1.83
2019-02-09T03:07:58.173Z,1.87
2019-02-09T03:09:06.198Z,1.87
2019-02-09T03:10:14.290Z,1.88
2019-02-09T03:11:22.323Z,1.83
2019-02-09T03:12:30.390Z,1.87
2019-02-09T03:13:38.457Z,1.95
2019-02-09T03:14:46.506Z,2.00
2019-02-09T03:15:54.556Z,1.99
2019-02-09T03:17:02.591Z,1.98
2019-02-09T03:18:10.663Z,1.93
2019-02-09T03:19:19.185Z,1.87
2019-02-09T03:20:26.775Z,1.90
2019-02-09T03:21:34.834Z,1.91
2019-02-09T03:22:42.918Z,1.93
2019-02-09T03:23:50.963Z,1.99
2019-02-09T03:24:59.017Z,1.90
2019-02-09T03:26:07.082Z,2.00
2019-02-09T03:27:15.105Z,1.88
2019-02-09T03:28:23.165Z,2.02
2019-02-09T03:29:31.223Z,2.06
2019-02-09T03:30:47.414Z,1.91
2019-02-09T03:31:47.345Z,2.05
2019-02-09T03:32:55.390Z,1.98
2019-02-09T03:34:03.472Z,2.05
2019-02-09T03:35:11.515Z,1.90
2019-02-09T03:36:19.574Z,2.09
2019-02-09T03:37:27.626Z,2.03
2019-02-09T03:38:35.656Z,2.02
2019-02-09T03:39:43.740Z,2.07
2019-02-09T03:40:51.775Z,2.05
2019-02-09T03:41:59.857Z,2.12
2019-02-09T03:43:07.908Z,2.02
2019-02-09T03:44:15.966Z,2.09
2019-02-09T03:45:24.013Z,2.06
2019-02-09T03:46:32.050Z,2.14
2019-02-09T03:47:40.133Z,2.12
2019-02-09T03:48:48.182Z,2.18
2019-02-09T03:49:56.234Z,2.17
2019-02-09T03:51:04.302Z,2.16
2019-02-09T03:52:12.378Z,2.18
2019-02-09T03:53:20.415Z,2.25
2019-02-09T03:54:28.458Z,2.20
2019-02-09T03:55:36.512Z,2.23
2019-02-09T03:56:44.566Z,2.17
2019-02-09T03:57:52.636Z,2.27
2019-02-09T03:59:00.706Z,2.21
2019-02-09T04:00:08.758Z,2.31
2019-02-09T04:01:16.797Z,2.30
2019-02-09T04:02:24.853Z,2.34
2019-02-09T04:03:32.918Z,2.39
2019-02-09T04:04:40.956Z,2.34
2019-02-09T04:05:49.054Z,2.45
2019-02-09T04:06:57.088Z,2.43
2019-02-09T04:08:05.142Z,2.54
2019-02-09T04:09:13.212Z,2.56
2019-02-09T04:10:21.291Z,2.53
2019-02-09T04:11:29.304Z,2.56
2019-02-09T04:12:37.372Z,2.67
2019-02-09T04:13:45.432Z,2.74
2019-02-09T04:14:53.479Z,2.66
2019-02-09T04:16:01.547Z,2.61
2019-02-09T04:17:09.596Z,2.72
2019-02-09T04:18:17.662Z,2.66
2019-02-09T04:19:25.722Z,2.71
2019-02-09T04:20:33.776Z,2.67
2019-02-09T04:21:41.808Z,2.77
2019-02-09T04:22:49.880Z,2.75
2019-02-09T04:23:57.948Z,2.85
2019-02-09T04:25:06.057Z,2.96
2019-02-09T04:26:14.059Z,2.96
2019-02-09T04:27:22.095Z,3.08
2019-02-09T04:28:30.174Z,3.14
2019-02-09T04:29:38.220Z,3.15
2019-02-09T04:30:46.274Z,3.11
2019-02-09T04:31:54.345Z,3.17
2019-02-09T04:33:02.384Z,3.08
2019-02-09T04:34:10.453Z,3.15
2019-02-09T04:35:18.511Z,3.14
2019-02-09T04:36:26.570Z,3.14
2019-02-09T04:37:34.612Z,3.13
2019-02-09T04:38:42.673Z,3.08
2019-02-09T04:39:50.743Z,3.03
2019-02-09T04:40:58.785Z,3.13
2019-02-09T04:42:06.960Z,3.11
2019-02-09T04:43:14.880Z,3.21
2019-02-09T04:44:22.969Z,3.23
2019-02-09T04:45:31.034Z,3.40
2019-02-09T04:46:39.077Z,3.43
2019-02-09T04:47:47.140Z,3.58
2019-02-09T04:48:55.199Z,3.66
2019-02-09T04:50:03.254Z,3.80
2019-02-09T04:51:11.294Z,3.94
2019-02-09T04:52:19.363Z,3.88
2019-02-09T04:53:27.447Z,3.93
2019-02-09T04:54:35.508Z,4.08
2019-02-09T04:55:43.528Z,4.16
2019-02-09T04:56:51.634Z,4.22
2019-02-09T04:57:59.652Z,4.23
2019-02-09T04:59:07.717Z,4.15
2019-02-09T05:00:15.766Z,4.24
2019-02-09T05:01:23.842Z,4.20
2019-02-09T05:02:31.890Z,4.26
2019-02-09T05:03:39.943Z,4.27
2019-02-09T05:04:47.983Z,4.30
2019-02-09T05:05:56.049Z,4.34
2019-02-09T05:07:04.113Z,4.32
2019-02-09T05:08:12.150Z,4.37
2019-02-09T05:09:20.217Z,4.34
2019-02-09T05:10:28.296Z,4.33
2019-02-09T05:11:36.356Z,4.32
2019-02-09T05:12:44.418Z,4.34
2019-02-09T05:13:52.447Z,4.32
2019-02-09T05:15:00.541Z,4.32
2019-02-09T05:16:08.568Z,4.23
2019-02-09T05:17:16.640Z,4.18
2019-02-09T05:18:24.673Z,4.23
2019-02-09T05:19:32.749Z,4.27
2019-02-09T05:20:40.799Z,4.29
2019-02-09T05:21:48.864Z,4.20
2019-02-09T05:22:56.929Z,4.20
2019-02-09T05:24:04.981Z,4.16
2019-02-09T05:25:13.025Z,4.27
2019-02-09T05:26:21.101Z,4.18
2019-02-09T05:27:29.149Z,4.18
2019-02-09T05:28:37.204Z,4.08
2019-02-09T05:29:45.255Z,4.15
2019-02-09T05:30:53.330Z,4.14
2019-02-09T05:32:01.359Z,4.20
2019-02-09T05:33:09.435Z,4.18
2019-02-09T05:34:17.495Z,4.23
2019-02-09T05:35:25.557Z,4.22
2019-02-09T05:36:33.620Z,4.18
2019-02-09T05:37:41.660Z,4.14
2019-02-09T05:38:49.722Z,4.24
2019-02-09T05:39:57.793Z,4.20
2019-02-09T05:41:05.841Z,4.20
2019-02-09T05:42:13.891Z,4.18
2019-02-09T05:43:21.944Z,4.18
2019-02-09T05:44:30.020Z,4.16
2019-02-09T05:45:38.080Z,4.24
2019-02-09T05:46:46.126Z,4.18
2019-02-09T05:47:54.184Z,4.16
2019-02-09T05:49:02.236Z,4.23
2019-02-09T05:50:10.296Z,4.23
2019-02-09T05:51:18.385Z,4.22
2019-02-09T05:52:26.394Z,4.22
2019-02-09T05:53:34.461Z,4.06
2019-02-09T05:54:42.522Z,4.14
2019-02-09T05:55:50.598Z,4.09
2019-02-09T05:56:58.656Z,4.09
2019-02-09T05:58:06.710Z,4.09
2019-02-09T05:59:14.771Z,4.14
2019-02-09T06:00:22.827Z,4.11
2019-02-09T06:01:32.473Z,4.16
2019-02-09T06:02:38.920Z,4.15
2019-02-09T06:03:47.014Z,4.12
2019-02-09T06:04:55.059Z,4.11
2019-02-09T06:06:03.115Z,4.09
2019-02-09T06:07:11.209Z,4.05
2019-02-09T06:08:19.226Z,4.04
2019-02-09T06:09:27.276Z,4.06
2019-02-09T06:10:35.349Z,3.97
2019-02-09T06:11:43.406Z,3.96
2019-02-09T06:12:51.442Z,4.00
2019-02-09T06:13:59.504Z,3.91
2019-02-09T06:15:07.568Z,3.97
2019-02-09T06:16:15.618Z,3.87
2019-02-09T06:17:23.670Z,3.75
2019-02-09T06:18:31.721Z,3.80
2019-02-09T06:19:39.820Z,3.75
2019-02-09T06:20:47.909Z,3.70
2019-02-09T06:21:55.943Z,3.62
2019-02-09T06:23:03.972Z,3.57
2019-02-09T06:24:12.052Z,3.62
2019-02-09T06:25:20.103Z,3.60
2019-02-09T06:26:28.179Z,3.48
2019-02-09T06:27:36.191Z,3.55
2019-02-09T06:28:44.269Z,3.54
2019-02-09T06:29:52.289Z,3.51
2019-02-09T06:31:00.392Z,3.52
2019-02-09T06:32:08.433Z,3.57
2019-02-09T06:33:16.477Z,3.61
2019-02-09T06:34:24.543Z,3.61
2019-02-09T06:35:32.596Z,3.58
2019-02-09T06:36:40.673Z,3.61
2019-02-09T06:37:48.737Z,3.57
2019-02-09T06:38:56.800Z,3.60
2019-02-09T06:40:04.826Z,3.54
2019-02-09T06:41:12.916Z,3.60
2019-02-09T06:42:20.963Z,3.60
2019-02-09T06:43:28.998Z,3.58
2019-02-09T06:44:37.082Z,3.55
2019-02-09T06:45:45.136Z,3.60
2019-02-09T06:46:53.199Z,3.58
2019-02-09T06:48:01.236Z,3.60
2019-02-09T06:49:09.290Z,3.69
2019-02-09T06:50:17.360Z,3.66
2019-02-09T06:51:25.412Z,3.70
2019-02-09T06:52:33.476Z,3.69
2019-02-09T06:53:41.570Z,3.79
2019-02-09T06:54:49.586Z,3.65
2019-02-09T06:55:57.633Z,3.76
2019-02-09T06:57:05.689Z,3.76
2019-02-09T06:58:13.766Z,3.79
2019-02-09T06:59:21.798Z,3.80
2019-02-09T07:00:29.890Z,3.88
2019-02-09T07:01:37.919Z,3.87
2019-02-09T07:02:45.994Z,3.80
2019-02-09T07:03:54.056Z,3.88
2019-02-09T07:05:02.088Z,3.90
2019-02-09T07:06:10.163Z,3.87
2019-02-09T07:07:18.225Z,3.96
2019-02-09T07:08:26.273Z,3.88
2019-02-09T07:09:34.323Z,3.91
2019-02-09T07:10:42.369Z,3.87
2019-02-09T07:11:50.459Z,3.90
2019-02-09T07:12:58.503Z,3.90
2019-02-09T07:14:06.558Z,3.97
2019-02-09T07:15:14.610Z,3.96
2019-02-09T07:16:22.686Z,3.98
2019-02-09T07:17:30.719Z,4.11
2019-02-09T07:18:38.800Z,3.91
2019-02-09T07:19:46.850Z,4.04
2019-02-09T07:20:54.894Z,4.08
2019-02-09T07:22:02.945Z,4.06
2019-02-09T07:23:11.034Z,4.11
2019-02-09T07:24:19.094Z,4.12
2019-02-09T07:25:27.178Z,4.11
2019-02-09T07:26:35.181Z,4.04
2019-02-09T07:27:43.235Z,4.08
2019-02-09T07:28:52.158Z,4.12
2019-02-09T07:29:59.369Z,4.16
2019-02-09T07:31:07.459Z,4.09
2019-02-09T07:32:15.467Z,4.14
2019-02-09T07:33:23.596Z,4.16
2019-02-09T07:34:31.576Z,4.05
2019-02-09T07:35:39.673Z,4.06
2019-02-09T07:36:47.713Z,4.20
2019-02-09T07:37:55.771Z,4.23
2019-02-09T07:39:03.813Z,4.40
2019-02-09T07:40:11.878Z,4.42
2019-02-09T07:41:19.935Z,4.50
2019-02-09T07:42:27.992Z,4.58
2019-02-09T07:43:36.064Z,4.60
2019-02-09T07:44:44.121Z,4.58
2019-02-09T07:45:52.190Z,4.51
2019-02-09T07:47:00.249Z,4.59
2019-02-09T07:48:08.307Z,4.54
2019-02-09T07:49:16.317Z,4.59
2019-02-09T07:50:24.399Z,4.60
2019-02-09T07:51:32.454Z,4.59
2019-02-09T07:52:40.515Z,4.59
2019-02-09T07:53:48.586Z,4.62
2019-02-09T07:54:56.654Z,4.75
2019-02-09T07:56:04.810Z,4.75
2019-02-09T07:57:12.791Z,4.77
2019-02-09T07:58:20.825Z,4.73
2019-02-09T07:59:28.888Z,4.88
2019-02-09T08:00:37.107Z,4.86
2019-02-09T08:01:45.319Z,4.94
2019-02-09T08:02:53.261Z,4.96
2019-02-09T08:04:01.306Z,5.09
2019-02-09T08:05:09.202Z,5.10
2019-02-09T08:06:17.232Z,5.12
2019-02-09T08:07:25.297Z,5.15
2019-02-09T08:08:33.347Z,5.21
2019-02-09T08:09:41.602Z,5.25
2019-02-09T08:10:49.473Z,5.22
2019-02-09T08:11:57.522Z,5.22
2019-02-09T08:13:05.614Z,5.18
2019-02-09T08:14:13.645Z,5.28
2019-02-09T08:15:21.687Z,5.30
2019-02-09T08:16:29.796Z,5.38
2019-02-09T08:17:37.828Z,5.40
2019-02-09T08:18:45.868Z,5.40
2019-02-09T08:19:53.922Z,5.45
2019-02-09T08:21:01.976Z,5.51
2019-02-09T08:22:10.048Z,5.58
2019-02-09T08:23:18.089Z,5.58
2019-02-09T08:24:26.202Z,5.68
2019-02-09T08:25:34.254Z,5.75
2019-02-09T08:26:42.282Z,5.82
2019-02-09T08:27:50.342Z,5.76
2019-02-09T08:28:58.403Z,5.90
2019-02-09T08:30:06.441Z,5.86
2019-02-09T08:31:14.526Z,6.06
2019-02-09T08:32:22.556Z,6.04
2019-02-09T08:33:30.631Z,6.04
2019-02-09T08:34:38.711Z,6.22
2019-02-09T08:35:46.826Z,6.15
2019-02-09T08:36:54.818Z,6.27
2019-02-09T08:38:02.881Z,6.36
2019-02-09T08:39:10.932Z,6.37
2019-02-09T08:40:18.997Z,6.40
2019-02-09T08:41:27.032Z,6.52
2019-02-09T08:42:35.110Z,6.54
2019-02-09T08:43:43.192Z,6.54
2019-02-09T08:44:51.260Z,6.56
2019-02-09T08:45:59.277Z,6.56
2019-02-09T08:47:07.328Z,6.62
2019-02-09T08:48:15.833Z,6.71
2019-02-09T08:49:23.698Z,6.77
2019-02-09T08:50:31.540Z,6.76
2019-02-09T08:51:39.591Z,6.80
2019-02-09T08:52:47.661Z,6.70
2019-02-09T08:53:55.721Z,6.74
2019-02-09T08:55:03.767Z,6.76
2019-02-09T08:56:11.806Z,6.85
2019-02-09T08:57:19.882Z,6.95
2019-02-09T08:58:27.977Z,6.88
2019-02-09T08:59:36.025Z,6.91
2019-02-09T09:00:44.083Z,6.94
2019-02-09T09:01:52.105Z,6.95
2019-02-09T09:03:00.191Z,6.94
2019-02-09T09:04:08.585Z,6.92
2019-02-09T09:05:16.812Z,6.99
2019-02-09T09:06:24.394Z,6.95
2019-02-09T09:07:32.420Z,6.94
2019-02-09T09:08:40.492Z,7.03
2019-02-09T09:09:48.945Z,6.97
2019-02-09T09:10:57.070Z,6.98
2019-02-09T09:12:04.660Z,6.97
2019-02-09T09:13:12.715Z,6.97
2019-02-09T09:14:20.772Z,6.94
2019-02-09T09:15:28.846Z,7.02
2019-02-09T09:16:36.913Z,7.06
2019-02-09T09:17:44.968Z,7.12
2019-02-09T09:18:53.026Z,7.24
2019-02-09T09:20:01.119Z,7.30
2019-02-09T09:21:09.137Z,7.37
2019-02-09T09:22:17.241Z,7.42
2019-02-09T09:23:25.304Z,7.48
2019-02-09T09:24:33.313Z,7.53
2019-02-09T09:25:41.374Z,7.63
2019-02-09T09:26:49.439Z,7.61
2019-02-09T09:27:57.494Z,7.77
2019-02-09T09:29:05.569Z,7.82
2019-02-09T09:30:13.653Z,7.86
2019-02-09T09:31:21.675Z,7.95
2019-02-09T09:32:29.766Z,7.92
2019-02-09T09:33:37.800Z,8.08
2019-02-09T09:34:45.872Z,8.11
2019-02-09T09:35:53.955Z,8.28
2019-02-09T09:37:01.988Z,8.19
2019-02-09T09:38:10.068Z,8.33
2019-02-09T09:39:18.103Z,8.30
2019-02-09T09:40:26.209Z,8.37
2019-02-09T09:41:34.259Z,8.41
2019-02-09T09:42:42.310Z,8.40
2019-02-09T09:43:50.371Z,8.41
2019-02-09T09:44:58.416Z,8.34
2019-02-09T09:46:06.486Z,8.36
2019-02-09T09:47:14.634Z,8.28
2019-02-09T09:48:22.619Z,8.38
2019-02-09T09:49:30.667Z,8.34
2019-02-09T09:50:38.727Z,8.34
2019-02-09T09:51:46.801Z,8.37
2019-02-09T09:52:54.850Z,8.25
2019-02-09T09:54:02.942Z,8.37
2019-02-09T09:55:10.995Z,8.30
2019-02-09T09:56:19.058Z,8.38
2019-02-09T09:57:27.122Z,8.34
2019-02-09T09:58:35.165Z,8.38
2019-02-09T09:59:43.268Z,8.29
2019-02-09T10:00:51.292Z,8.37
2019-02-09T10:01:59.346Z,8.37
2019-02-09T10:03:07.418Z,8.36
2019-02-09T10:04:15.469Z,8.30
2019-02-09T10:05:23.533Z,8.30
2019-02-09T10:06:31.572Z,8.41
2019-02-09T10:07:39.651Z,8.34
2019-02-09T10:08:47.743Z,8.33
2019-02-09T10:09:55.780Z,8.34
2019-02-09T10:11:03.836Z,8.29
2019-02-09T10:12:11.895Z,8.33
2019-02-09T10:13:19.966Z,8.41
2019-02-09T10:14:28.039Z,8.48
2019-02-09T10:15:36.078Z,8.48
2019-02-09T10:16:44.160Z,8.43
2019-02-09T10:17:52.232Z,8.52
2019-02-09T10:19:00.297Z,8.56
2019-02-09T10:20:08.334Z,8.58
2019-02-09T10:21:16.416Z,8.70
2019-02-09T10:22:24.485Z,8.61
2019-02-09T10:23:32.514Z,8.62
2019-02-09T10:24:40.573Z,8.70
2019-02-09T10:25:48.657Z,8.74
2019-02-09T10:26:56.799Z,8.55
2019-02-09T10:28:04.834Z,8.53
2019-02-09T10:29:12.857Z,8.68
2019-02-09T10:30:20.891Z,8.63
2019-02-09T10:31:28.950Z,8.70
2019-02-09T10:32:44.049Z,8.66
2019-02-09T10:33:45.086Z,8.62
2019-02-09T10:34:53.131Z,8.58
2019-02-09T10:36:01.204Z,8.56
2019-02-09T10:37:09.284Z,8.61
2019-02-09T10:38:17.315Z,8.45
2019-02-09T10:39:25.383Z,8.48
2019-02-09T10:40:33.457Z,8.45
2019-02-09T10:41:41.488Z,8.45
2019-02-09T10:42:49.577Z,8.47
2019-02-09T10:43:57.682Z,8.45
2019-02-09T10:45:05.683Z,8.45
2019-02-09T10:46:13.756Z,8.47
2019-02-09T10:47:21.824Z,8.53
2019-02-09T10:48:29.886Z,8.41
2019-02-09T10:49:37.932Z,8.56
2019-02-09T10:50:45.997Z,8.62
2019-02-09T10:51:54.086Z,8.70
2019-02-09T10:53:02.115Z,8.63
2019-02-09T10:54:10.181Z,8.81
2019-02-09T10:55:18.268Z,8.80
2019-02-09T10:56:26.288Z,8.76
2019-02-09T10:57:34.393Z,8.73
2019-02-09T10:58:42.415Z,8.62
2019-02-09T10:59:50.498Z,8.73
2019-02-09T11:00:58.553Z,8.65
2019-02-09T11:02:06.598Z,8.65
2019-02-09T11:03:14.678Z,8.61
2019-02-09T11:04:22.734Z,8.68
2019-02-09T11:05:30.831Z,8.61
2019-02-09T11:06:38.858Z,8.65
2019-02-09T11:07:46.922Z,8.74
2019-02-09T11:08:55.000Z,8.74
2019-02-09T11:10:03.046Z,8.80
2019-02-09T11:11:11.090Z,8.83
2019-02-09T11:12:19.969Z,8.84
2019-02-09T11:13:27.228Z,8.98
2019-02-09T11:14:35.283Z,8.96
2019-02-09T11:15:43.352Z,9.02
2019-02-09T11:16:51.384Z,9.18
2019-02-09T11:17:59.471Z,9.28
2019-02-09T11:19:07.551Z,9.35
2019-02-09T11:20:15.586Z,9.35
2019-02-09T11:21:23.665Z,9.47
2019-02-09T11:22:31.718Z,9.46
2019-02-09T11:23:39.804Z,9.64
2019-02-09T11:24:47.893Z,9.65
2019-02-09T11:25:55.912Z,9.79
2019-02-09T11:27:04.018Z,9.94
2019-02-09T11:28:12.015Z,10.02
2019-02-09T11:29:20.101Z,9.97
2019-02-09T11:30:28.163Z,10.14
2019-02-09T11:31:36.231Z,9.97
2019-02-09T11:32:44.279Z,10.15
2019-02-09T11:33:52.361Z,10.01
2019-02-09T11:35:00.752Z,10.17
2019-02-09T11:36:08.473Z,10.09
2019-02-09T11:37:16.521Z,10.20
2019-02-09T11:38:24.603Z,10.12
2019-02-09T11:39:32.676Z,10.14
2019-02-09T11:40:40.718Z,10.29
2019-02-09T11:41:48.796Z,10.20
2019-02-09T11:42:56.859Z,10.18
2019-02-09T11:44:04.923Z,10.29
2019-02-09T11:45:12.987Z,10.12
2019-02-09T11:46:21.067Z,10.27
2019-02-09T11:47:29.188Z,10.17
2019-02-09T11:48:37.204Z,10.25
2019-02-09T11:49:45.233Z,10.27
2019-02-09T11:50:53.289Z,10.18
2019-02-09T11:52:01.337Z,10.22
2019-02-09T11:53:09.421Z,10.17
2019-02-09T11:54:17.473Z,10.12
2019-02-09T11:55:25.531Z,10.14
2019-02-09T11:56:33.617Z,10.15
2019-02-09T11:57:41.973Z,10.17
2019-02-09T11:58:49.722Z,10.23
2019-02-09T11:59:57.804Z,10.18
2019-02-09T12:01:05.851Z,10.25
2019-02-09T12:02:13.909Z,10.15
2019-02-09T12:03:21.983Z,10.27
2019-02-09T12:04:30.056Z,10.27
2019-02-09T12:05:38.124Z,10.36
2019-02-09T12:06:47.858Z,10.33
2019-02-09T12:07:54.288Z,10.32
2019-02-09T12:09:02.309Z,10.34
2019-02-09T12:10:10.410Z,10.40
2019-02-09T12:11:18.421Z,10.44
2019-02-09T12:12:26.475Z,10.45
2019-02-09T12:13:34.568Z,10.44
2019-02-09T12:14:42.607Z,10.29
2019-02-09T12:15:50.690Z,10.30
2019-02-09T12:16:58.754Z,10.36
2019-02-09T12:18:06.799Z,10.48
2019-02-09T12:19:14.890Z,10.56
2019-02-09T12:20:22.941Z,10.51
2019-02-09T12:21:31.040Z,10.66
2019-02-09T12:22:39.069Z,10.64
2019-02-09T12:23:47.135Z,10.66
2019-02-09T12:24:55.206Z,10.70
2019-02-09T12:26:03.241Z,10.67
2019-02-09T12:27:11.332Z,10.60
2019-02-09T12:28:19.379Z,10.60
2019-02-09T12:29:27.425Z,10.59
2019-02-09T12:30:35.531Z,10.61
2019-02-09T12:31:43.564Z,10.63
2019-02-09T12:32:51.599Z,10.74
2019-02-09T12:33:59.687Z,10.85
2019-02-09T12:35:07.745Z,10.86
2019-02-09T12:36:15.802Z,10.96
2019-02-09T12:37:23.888Z,10.92
2019-02-09T12:38:31.922Z,10.84
2019-02-09T12:39:40.012Z,10.96
2019-02-09T12:40:48.074Z,10.81
2019-02-09T12:41:56.149Z,10.88
2019-02-09T12:43:04.187Z,10.89
2019-02-09T12:44:12.243Z,11.02
2019-02-09T12:45:20.326Z,11.04
2019-02-09T12:46:28.380Z,10.96
2019-02-09T12:47:36.462Z,11.06
2019-02-09T12:48:44.527Z,11.03
2019-02-09T12:49:52.596Z,11.06
2019-02-09T12:51:00.680Z,11.03
2019-02-09T12:52:08.797Z,11.06
2019-02-09T12:53:16.791Z,10.96
2019-02-09T12:54:24.846Z,10.91
2019-02-09T12:55:32.897Z,10.84
2019-02-09T12:56:40.978Z,10.78
2019-02-09T12:57:49.028Z,10.84
2019-02-09T12:58:57.092Z,10.78
2019-02-09T13:00:05.895Z,10.76
2019-02-09T13:01:13.216Z,10.73
2019-02-09T13:02:21.281Z,10.82
2019-02-09T13:03:31.133Z,10.66
2019-02-09T13:04:37.395Z,10.68
2019-02-09T13:05:45.476Z,10.53
2019-02-09T13:06:53.523Z,10.40
2019-02-09T13:08:01.615Z,10.34
2019-02-09T13:09:09.677Z,10.36
2019-02-09T13:10:17.713Z,10.32
2019-02-09T13:11:25.854Z,10.22
2019-02-09T13:12:33.907Z,10.18
2019-02-09T13:13:41.919Z,10.25
2019-02-09T13:14:49.994Z,10.20
2019-02-09T13:15:58.047Z,10.26
2019-02-09T13:17:06.114Z,10.27
2019-02-09T13:18:14.194Z,10.20
2019-02-09T13:19:22.259Z,10.23
2019-02-09T13:20:30.303Z,10.26
2019-02-09T13:21:38.365Z,10.29
2019-02-09T13:22:46.417Z,10.36
2019-02-09T13:23:54.500Z,10.29
2019-02-09T13:25:02.627Z,10.27
2019-02-09T13:26:10.628Z,10.33
2019-02-09T13:27:18.701Z,10.34
2019-02-09T13:28:26.736Z,10.29
2019-02-09T13:29:34.808Z,10.34
2019-02-09T13:30:42.878Z,10.45
2019-02-09T13:31:50.930Z,10.45
2019-02-09T13:32:58.990Z,10.56
2019-02-09T13:34:07.069Z,10.47
2019-02-09T13:35:15.128Z,10.63
2019-02-09T13:36:23.182Z,10.55
2019-02-09T13:37:31.268Z,10.61
2019-02-09T13:38:39.297Z,10.70
2019-02-09T13:39:47.377Z,10.64
2019-02-09T13:40:55.444Z,10.63
2019-02-09T13:42:03.510Z,10.73
2019-02-09T13:43:11.542Z,10.64
2019-02-09T13:44:19.630Z,10.73
2019-02-09T13:45:27.722Z,10.81
2019-02-09T13:46:35.766Z,10.73
2019-02-09T13:47:44.413Z,10.63
2019-02-09T13:48:51.868Z,10.48
2019-02-09T13:49:59.959Z,10.44
2019-02-09T13:51:08.016Z,10.45
2019-02-09T13:52:16.143Z,10.48
2019-02-09T13:53:24.387Z,10.51
2019-02-09T13:54:32.203Z,10.59
2019-02-09T13:55:40.281Z,10.66
2019-02-09T13:56:48.357Z,10.60
2019-02-09T13:57:56.372Z,10.51
2019-02-09T13:59:04.478Z,10.52
2019-02-09T14:00:12.551Z,10.61
2019-02-09T14:01:20.574Z,10.63
2019-02-09T14:02:28.687Z,10.61
2019-02-09T14:03:36.709Z,10.64
2019-02-09T14:04:44.806Z,10.67
2019-02-09T14:05:52.825Z,10.66
2019-02-09T14:07:01.009Z,10.60
2019-02-09T14:08:08.973Z,10.56
2019-02-09T14:09:17.027Z,10.60
2019-02-09T14:10:25.098Z,10.51
2019-02-09T14:11:33.198Z,10.53
2019-02-09T14:12:41.245Z,10.40
2019-02-09T14:13:49.335Z,10.47
2019-02-09T14:14:57.423Z,10.38
2019-02-09T14:16:07.966Z,10.38
2019-02-09T14:17:13.485Z,10.34
2019-02-09T14:18:21.591Z,10.34
2019-02-09T14:19:29.721Z,10.36
2019-02-09T14:20:37.638Z,10.36
2019-02-09T14:21:45.761Z,10.38
2019-02-09T14:22:53.814Z,10.45
2019-02-09T14:24:01.827Z,10.44
2019-02-09T14:25:09.977Z,10.45
2019-02-09T14:26:17.968Z,10.45
2019-02-09T14:27:26.064Z,10.42
2019-02-09T14:28:34.102Z,10.38
2019-02-09T14:29:42.199Z,10.40
2019-02-09T14:30:50.243Z,10.29
2019-02-09T14:31:58.320Z,10.34
2019-02-09T14:33:06.363Z,10.20
2019-02-09T14:34:14.455Z,10.29
2019-02-09T14:35:22.494Z,10.25
2019-02-09T14:36:30.584Z,10.29
2019-02-09T14:37:38.619Z,10.12
2019-02-09T14:38:46.723Z,10.14
2019-02-09T14:39:54.777Z,10.23
2019-02-09T14:41:02.811Z,10.20
2019-02-09T14:42:10.877Z,10.12
2019-02-09T14:43:18.914Z,10.22
2019-02-09T14:44:27.003Z,10.11
2019-02-09T14:45:35.083Z,10.08
2019-02-09T14:46:43.148Z,10.05
2019-02-09T14:47:51.182Z,10.11
2019-02-09T14:48:59.255Z,10.07
2019-02-09T14:50:11.226Z,10.04
2019-02-09T14:51:15.360Z,9.96
2019-02-09T14:52:23.429Z,9.97
2019-02-09T14:53:31.469Z,10.04
2019-02-09T14:54:39.566Z,9.96
2019-02-09T14:55:47.636Z,9.94
2019-02-09T14:56:55.684Z,9.99
2019-02-09T14:58:03.799Z,10.01